Huvudsida
METAR-TAF:

METAR-TAF

Flygplatser :

Gloucestershire Airport

Gloucester, England

latitud: 51-54N, longitud: 002-10W, höjd: 29 m

Aktuellt väderrapport

Denna rapport gjordes för 7 timmar och 55 minuter sedan, klockan 14:50 UTC
Vind 5 kt från nord/nordväst, varierande mellan väst/nordväst och nord/nordost
Temperatur 24°C
Fuktighet 44%
Tryck 1034 hPa
Sikt 10 km eller mer
Inga moln under 1 500 m eller inga cumulonimbus

METAR: EGBJ 271450Z 34005KT 300V020 CAVOK 24/11 Q1034

Tid: 23:45 (22:45 UTC)

Väderprognos

Denna rapport gjordes för 14 timmar och 20 minuter sedan, klockan 08:25 UTC
Prognos gäller från 27 kl. 09 UTC till 27 kl. 18 UTC
Vind 4 kt från nord
Sikt 10 km eller mer
Spridda moln på en höjd av 4500 ft

TAF: EGBJ 270825Z 2709/2718 01004KT 9999 SCT045

Aktuella väderrapporter och prognoser från 4000 flygplatser (METAR- och TAF-rapporter).

De tillgängliga stationerna syns som gula och röda prickar på kartan.

För musen över prickarna för att se namnen på stationerna.

Klicka sedan för att få väderrapporter och prognoser.

För att ändra kartan: Klicka på de gröna knapparna med ett svart kors på för att zooma in; den gröna knappen med ett streck på för att zooma ut; eller på de gröna pilarna för angränsande kartor.


METAR-TAF: